Flight Track Log - Related Links

Times and Time Zones

All times are in EDT time to prevent confusion due to time zone crossing. See the UAL4115 flight status page for this flight to view local times or setup timezone preferences in your user account.

Time Position Orientation Groundspeed Altitude Reporting Facility
EDT Latitude Longitude Course Direction KTS MPH feet Rate Location/Type
Wed 02:18:31 PM 40.6333 -74.2000 194° South 185 213 2,500  Level New York TRACON
Wed 02:19:31 PM 40.5833 -74.2500 217° Southwest 257 296 4,200 2,200 Climbing New York TRACON
Wed 02:20:00 PM 40.3847 -74.1923 159° South  Level FlightAware Approximate
Wed 02:20:31 PM 40.5167 -74.3000 210° Southwest 264 304 6,900  Level New York TRACON
Wed 02:21:00 PM 40.2806 -74.1565 194° South  Level FlightAware Approximate
Wed 02:21:31 PM 40.4667 -74.2833 166° South 265 305 9,000  Level New York TRACON
Wed 02:22:00 PM 40.1733 -74.1922 194° South  Level FlightAware Approximate
Wed 02:22:31 PM 40.4333 -74.1833 114° Southeast 271 312 10,900  Level New York TRACON
Wed 02:23:00 PM 40.0663 -74.2224 194° South  Level FlightAware Approximate
Wed 02:24:30 PM 40.3011 -74.1319 163° South 312 359 12,800  Level New York Center
Wed 02:26:27 PM 40.1219 -74.2025 197° South 346 398 15,400 1,356 Climbing Washington Center
Wed 02:27:27 PM 40.0247 -74.2450 199° South 358 412 16,800 1,190 Climbing Washington Center
Wed 02:28:28 PM 39.9381 -74.3169 212° Southwest 364 419 17,800 1,190 Climbing Washington Center
Wed 02:29:28 PM 39.8556 -74.3942 216° Southwest 369 425 19,200 1,373 Climbing Washington Center
Wed 02:30:26 PM 39.7772 -74.4844 222° Southwest 376 433 20,500 1,160 Climbing Washington Center
Wed 02:31:27 PM 39.7008 -74.5856 226° Southwest 386 444 21,500 1,033 Climbing Washington Center
Wed 02:32:28 PM 39.6164 -74.6972 226° Southwest 392 451 22,600 1,059 Climbing Washington Center
Wed 02:33:26 PM 39.5339 -74.8058 225° Southwest 404 465 23,600 1,008 Climbing Washington Center
Wed 02:34:27 PM 39.4533 -74.9117 225° Southwest 412 474 24,600 1,230 Climbing Washington Center
Wed 02:35:28 PM 39.3744 -75.0169 226° Southwest 412 474 26,100 1,488 Climbing Washington Center
Wed 02:36:28 PM 39.2917 -75.1089 221° Southwest 407 468 27,600 1,373 Climbing Washington Center
Wed 02:37:26 PM 39.1897 -75.1606 201° Southwest 392 451 28,800 1,169 Climbing Washington Center
Wed 02:38:26 PM 39.0856 -75.2067 199° South 392 451 29,900 1,041 Climbing Washington Center
Wed 02:39:27 PM 38.9794 -75.2497 198° South 397 457 30,900 934 Climbing Washington Center
Wed 02:40:28 PM 38.8733 -75.2931 198° South 402 463 31,800 958 Climbing Washington Center
Wed 02:41:26 PM 38.7669 -75.3414 200° South 402 463 32,800 1,008 Climbing Washington Center
Wed 02:42:27 PM 38.6544 -75.3817 196° South 408 470 33,800 590 Climbing Washington Center
Wed 02:43:28 PM 38.5442 -75.4272 198° South 414 476 34,000 605 Climbing Washington Center
Wed 02:44:26 PM 38.4317 -75.4778 199° South 425 489 35,000 966 Climbing Washington Center
Wed 02:45:26 PM 38.3233 -75.5336 202° Southwest 425 489 35,900 496 Climbing Washington Center
Wed 02:46:27 PM 38.2253 -75.6208 215° Southwest 417 480 36,000 49 Climbing Washington Center
Wed 02:47:28 PM 38.1250 -75.7131 216° Southwest 436 502 36,000  Level Washington Center
Wed 02:48:28 PM 38.0250 -75.8106 218° Southwest 454 522 36,000  Level Washington Center
Wed 02:49:26 PM 37.9100 -75.8919 209° Southwest 459 528 36,000  Level Washington Center
Wed 02:50:26 PM 37.8056 -75.9886 216° Southwest 466 536 36,000  Level Washington Center
Wed 02:51:27 PM 37.7050 -76.0931 219° Southwest 473 544 36,000  Level Washington Center
Wed 02:52:27 PM 37.5981 -76.1869 215° Southwest 473 544 36,000  Level Washington Center
Wed 02:53:28 PM 37.4975 -76.2803 216° Southwest 468 539 36,000  Level Washington Center
Wed 02:54:28 PM 37.3989 -76.3708 216° Southwest 457 526 36,000  Level Washington Center
Wed 02:55:26 PM 37.3044 -76.4639 218° Southwest 450 518 36,000  Level Washington Center
Wed 02:56:27 PM 37.2058 -76.5542 216° Southwest 445 512 36,000  Level Washington Center
Wed 02:57:28 PM 37.1092 -76.6439 217° Southwest 445 512 36,000  Level Washington Center
Wed 02:58:26 PM 37.0144 -76.7339 217° Southwest 440 506 36,000  Level Washington Center
Wed 02:59:26 PM 36.9175 -76.8233 216° Southwest 440 506 36,000  Level Washington Center
Wed 03:00:27 PM 36.8228 -76.9125 217° Southwest 440 506 36,000  Level Washington Center
Wed 03:01:28 PM 36.7236 -77.0017 216° Southwest 445 512 36,000  Level Washington Center
Wed 03:02:26 PM 36.6222 -77.1008 218° Southwest 450 518 36,000  Level Washington Center
Wed 03:03:26 PM 36.5272 -77.1972 219° Southwest 450 518 36,000  Level Washington Center
Wed 03:04:27 PM 36.4319 -77.2856 217° Southwest 445 512 36,000  Level Washington Center
Wed 03:05:27 PM 36.3389 -77.3764 218° Southwest 440 506 36,000  Level Washington Center
Wed 03:06:28 PM 36.2500 -77.4669 219° Southwest 428 493 36,000  Level Washington Center
Wed 03:07:27 PM 36.1608 -77.5525 218° Southwest 417 480 36,000  Level Washington Center
Wed 03:08:27 PM 36.0719 -77.6375 218° Southwest 417 480 36,000  Level Washington Center
Wed 03:09:28 PM 35.9806 -77.7275 219° Southwest 423 487 36,000  Level Washington Center
Wed 03:10:28 PM 35.8872 -77.8122 216° Southwest 423 487 36,000  Level Washington Center
Wed 03:11:26 PM 35.7958 -77.9019 219° Southwest 423 487 36,000  Level Washington Center
Wed 03:12:27 PM 35.7022 -77.9914 218° Southwest 428 493 36,000  Level Washington Center
Wed 03:13:28 PM 35.6064 -78.0803 217° Southwest 428 493 36,000  Level Washington Center
Wed 03:14:26 PM 35.5319 -78.1494 217° Southwest 428 493 36,000  Level Washington Center
Wed 03:15:27 PM 35.4297 -78.2431 217° Southwest 428 493 36,000  Level Washington Center
Wed 03:16:27 PM 35.3381 -78.3292 217° Southwest 428 493 36,000  Level Washington Center
Wed 03:17:28 PM 35.2444 -78.4175 218° Southwest 428 493 36,000  Level Washington Center
Wed 03:18:26 PM 35.1525 -78.5031 217° Southwest 428 493 36,000  Level Washington Center
Wed 03:19:27 PM 35.0628 -78.5914 219° Southwest 428 493 36,000  Level Washington Center
Wed 03:20:27 PM 34.9731 -78.6742 217° Southwest 428 493 36,000  Level Washington Center
Wed 03:21:27 PM 34.8853 -78.7544 217° Southwest 422 486 36,000  Level Washington Center
Wed 03:23:16 PM 34.7225 -78.8992 216° Southwest 390 449 36,000  Level Jacksonville Center
Wed 03:24:16 PM 34.6333 -78.9817 217° Southwest 390 449 36,000  Level Jacksonville Center
Wed 03:25:16 PM 34.5439 -79.0664 218° Southwest 402 463 36,000  Level Jacksonville Center
Wed 03:26:16 PM 34.4569 -79.1506 219° Southwest 408 470 36,000 -50 Level Jacksonville Center
Wed 03:27:16 PM 34.3736 -79.2297 218° Southwest 403 464 35,900 -50 Descending Jacksonville Center
Wed 03:28:16 PM 34.2883 -79.3064 217° Southwest 393 452 35,900 -750 Level Jacksonville Center
Wed 03:29:16 PM 34.2028 -79.3825 216° Southwest 393 452 34,400 -1,600 Descending Jacksonville Center
Wed 03:30:16 PM 34.1092 -79.4642 216° Southwest 388 447 32,700 -1,600 Descending Jacksonville Center
Wed 03:31:16 PM 34.0133 -79.5506 217° Southwest 404 465 31,200 -1,550 Descending Jacksonville Center
Wed 03:32:16 PM 33.9194 -79.6342 216° Southwest 420 483 29,600 -1,550 Descending Jacksonville Center
Wed 03:33:16 PM 33.8217 -79.7228 217° Southwest 431 496 28,100 -1,500 Descending Jacksonville Center
Wed 03:34:16 PM 33.7236 -79.8111 217° Southwest 443 510 26,600 -1,500 Descending Jacksonville Center
Wed 03:35:16 PM 33.6214 -79.9019 217° Southwest 455 524 25,100 -1,500 Descending Jacksonville Center
Wed 03:36:16 PM 33.5214 -79.9925 217° Southwest 455 524 23,600 -1,500 Descending Jacksonville Center
Wed 03:37:16 PM 33.4231 -80.0806 217° Southwest 450 518 22,100 -1,500 Descending Jacksonville Center
Wed 03:38:16 PM 33.3269 -80.1656 216° Southwest 450 518 20,600 -1,050 Descending Jacksonville Center
Wed 03:39:16 PM 33.2286 -80.2506 216° Southwest 444 511 20,000 -300 Descending Jacksonville Center
Wed 03:40:16 PM 33.1322 -80.3353 216° Southwest 444 511 20,000  Level Jacksonville Center
Wed 03:41:16 PM 33.0339 -80.4247 217° Southwest 444 511 20,000 -50 Level Jacksonville Center
Wed 03:42:16 PM 32.9372 -80.5067 215° Southwest 449 517 19,900 -750 Descending Jacksonville Center
Wed 03:43:16 PM 32.8508 -80.5781 215° Southwest 439 505 18,500 -1,400 Descending Jacksonville Center
Wed 03:44:16 PM 32.7586 -80.6594 217° Southwest 432 497 17,100 -1,650 Descending Jacksonville Center
Wed 03:45:16 PM 32.6681 -80.7383 216° Southwest 419 482 15,200 -2,150 Descending Jacksonville Center
Wed 03:46:16 PM 32.5836 -80.8092 215° Southwest 398 458 12,800 -1,950 Descending Jacksonville Center
Wed 03:47:16 PM 32.5094 -80.8750 217° Southwest 366 421 11,300 -1,450 Descending Jacksonville Center
Wed 03:48:16 PM 32.4692 -80.9644 242° Southwest 299 344 9,900 -1,600 Descending Jacksonville Center
Wed 03:49:16 PM 32.4514 -81.0389 254° West 283 326 8,100 -1,950 Descending Jacksonville Center
Wed 03:50:16 PM 32.4233 -81.1206 248° West 261 300 6,000 -2,400 Descending Jacksonville Center
Wed 03:51:16 PM 32.3764 -81.1978 234° Southwest 265 305 3,300 -2,000 Descending Jacksonville Center
Wed 03:52:16 PM 32.3336 -81.2650 233° Southwest 270 311 2,000 -650 Descending Jacksonville Center
Wed 03:53:16 PM 32.2842 -81.3247 226° Southwest 264 304 2,000  Level Jacksonville Center
Wed 03:54:16 PM 32.2300 -81.3306 185° South 228 262 2,000 -50 Level Jacksonville Center
Wed 03:55:16 PM 32.1675 -81.3367 185° South 228 262 1,900 -350 Descending Jacksonville Center
Wed 03:56:16 PM 32.1294 -81.2981 139° Southeast 183 211 1,300 -700 Descending Jacksonville Center
Wed 03:57:16 PM 32.1289 -81.2514 91° East 137 158 500 -800 Descending Jacksonville Center

Login

Don't have an account? Register now (free) for customized features, flight alerts, and more!